sensor_id;sensor_type;location;lat;lon;timestamp;pressure;altitude;pressure_sealevel;temperature
76394;BMP180;65216;51.090;-115.352;2024-01-30T00:01:59;87070.80;;;22.90
76394;BMP180;65216;51.090;-115.352;2024-01-30T00:04:25;87094.00;;;22.90
76394;BMP180;65216;51.090;-115.352;2024-01-30T00:06:52;87070.20;;;22.90
76394;BMP180;65216;51.090;-115.352;2024-01-30T00:09:19;87061.60;;;22.90
76394;BMP180;65216;51.090;-115.352;2024-01-30T00:11:46;87070.20;;;22.90
76394;BMP180;65216;51.090;-115.352;2024-01-30T00:14:15;87058.20;;;22.90
76394;BMP180;65216;51.090;-115.352;2024-01-30T00:16:42;87075.20;;;22.90
76394;BMP180;65216;51.090;-115.352;2024-01-30T00:19:09;87077.20;;;22.92
76394;BMP180;65216;51.090;-115.352;2024-01-30T00:21:36;87077.20;;;23.00
76394;BMP180;65216;51.090;-115.352;2024-01-30T00:24:03;87078.00;;;23.00
76394;BMP180;65216;51.090;-115.352;2024-01-30T00:26:30;87057.20;;;23.00
76394;BMP180;65216;51.090;-115.352;2024-01-30T00:28:57;87082.20;;;23.00
76394;BMP180;65216;51.090;-115.352;2024-01-30T00:31:28;87072.00;;;23.00
76394;BMP180;65216;51.090;-115.352;2024-01-30T00:33:58;87083.80;;;23.00
76394;BMP180;65216;51.090;-115.352;2024-01-30T00:36:25;87080.40;;;22.94
76394;BMP180;65216;51.090;-115.352;2024-01-30T00:38:52;87080.80;;;22.98
76394;BMP180;65216;51.090;-115.352;2024-01-30T00:41:19;87082.40;;;22.98
76394;BMP180;65216;51.090;-115.352;2024-01-30T00:43:46;87086.00;;;22.92
76394;BMP180;65216;51.090;-115.352;2024-01-30T00:46:13;87076.20;;;22.90
76394;BMP180;65216;51.090;-115.352;2024-01-30T00:48:39;87103.40;;;22.90
76394;BMP180;65216;51.090;-115.352;2024-01-30T00:51:07;87083.00;;;22.90
76394;BMP180;65216;51.090;-115.352;2024-01-30T00:53:34;87083.40;;;22.90
76394;BMP180;65216;51.090;-115.352;2024-01-30T00:56:01;87074.40;;;22.90
76394;BMP180;65216;51.090;-115.352;2024-01-30T00:58:27;87070.20;;;22.90
76394;BMP180;65216;51.090;-115.352;2024-01-30T01:00:54;87080.80;;;22.90
76394;BMP180;65216;51.090;-115.352;2024-01-30T01:03:21;87072.40;;;22.90
76394;BMP180;65216;51.090;-115.352;2024-01-30T01:05:48;87099.40;;;22.90
76394;BMP180;65216;51.090;-115.352;2024-01-30T01:08:18;87084.60;;;22.90
76394;BMP180;65216;51.090;-115.352;2024-01-30T01:10:46;87084.60;;;22.98
76394;BMP180;65216;51.090;-115.352;2024-01-30T01:13:13;87082.20;;;23.00
76394;BMP180;65216;51.090;-115.352;2024-01-30T01:15:40;87089.40;;;23.00
76394;BMP180;65216;51.090;-115.352;2024-01-30T01:18:08;87089.20;;;23.00
76394;BMP180;65216;51.090;-115.352;2024-01-30T01:20:34;87088.60;;;23.00
76394;BMP180;65216;51.090;-115.352;2024-01-30T01:23:02;87085.80;;;22.94
76394;BMP180;65216;51.090;-115.352;2024-01-30T01:25:29;87078.00;;;22.90
76394;BMP180;65216;51.090;-115.352;2024-01-30T01:27:56;87096.80;;;22.90
76394;BMP180;65216;51.090;-115.352;2024-01-30T01:30:26;87068.20;;;22.90
76394;BMP180;65216;51.090;-115.352;2024-01-30T01:32:53;87078.20;;;22.90
76394;BMP180;65216;51.090;-115.352;2024-01-30T01:35:26;87067.40;;;22.90
76394;BMP180;65216;51.090;-115.352;2024-01-30T01:37:54;87071.40;;;22.90
76394;BMP180;65216;51.090;-115.352;2024-01-30T01:40:26;87069.80;;;22.90
76394;BMP180;65216;51.090;-115.352;2024-01-30T01:42:55;87077.20;;;22.90
76394;BMP180;65216;51.090;-115.352;2024-01-30T01:45:22;87058.40;;;22.84
76394;BMP180;65216;51.090;-115.352;2024-01-30T01:47:53;87045.60;;;22.80
76394;BMP180;65216;51.090;-115.352;2024-01-30T01:50:23;87060.80;;;22.80
76394;BMP180;65216;51.090;-115.352;2024-01-30T01:52:55;87055.40;;;22.80
76394;BMP180;65216;51.090;-115.352;2024-01-30T01:55:23;87037.20;;;22.80
76394;BMP180;65216;51.090;-115.352;2024-01-30T01:57:53;87058.00;;;22.80
76394;BMP180;65216;51.090;-115.352;2024-01-30T02:00:22;87062.40;;;22.80
76394;BMP180;65216;51.090;-115.352;2024-01-30T02:02:50;87054.80;;;22.80
76394;BMP180;65216;51.090;-115.352;2024-01-30T02:05:17;87043.60;;;22.80
76394;BMP180;65216;51.090;-115.352;2024-01-30T02:07:45;87032.60;;;22.80
76394;BMP180;65216;51.090;-115.352;2024-01-30T02:10:12;87034.80;;;22.80
76394;BMP180;65216;51.090;-115.352;2024-01-30T02:12:41;87028.80;;;22.80
76394;BMP180;65216;51.090;-115.352;2024-01-30T02:15:08;87030.00;;;22.80
76394;BMP180;65216;51.090;-115.352;2024-01-30T02:17:34;87029.00;;;22.80
76394;BMP180;65216;51.090;-115.352;2024-01-30T02:20:02;87025.80;;;22.80
76394;BMP180;65216;51.090;-115.352;2024-01-30T02:22:30;87016.00;;;22.80
76394;BMP180;65216;51.090;-115.352;2024-01-30T02:24:58;87012.80;;;22.80
76394;BMP180;65216;51.090;-115.352;2024-01-30T02:27:25;87013.00;;;22.80
76394;BMP180;65216;51.090;-115.352;2024-01-30T02:29:52;87007.60;;;22.80
76394;BMP180;65216;51.090;-115.352;2024-01-30T02:32:19;86988.60;;;22.80
76394;BMP180;65216;51.090;-115.352;2024-01-30T02:34:45;87002.40;;;22.80
76394;BMP180;65216;51.090;-115.352;2024-01-30T02:37:12;87007.80;;;22.80
76394;BMP180;65216;51.090;-115.352;2024-01-30T02:39:39;87010.20;;;22.80
76394;BMP180;65216;51.090;-115.352;2024-01-30T02:42:06;86990.60;;;22.80
76394;BMP180;65216;51.090;-115.352;2024-01-30T02:44:33;86991.20;;;22.80
76394;BMP180;65216;51.090;-115.352;2024-01-30T02:47:00;87003.60;;;22.80
76394;BMP180;65216;51.090;-115.352;2024-01-30T02:49:27;86973.20;;;22.80
76394;BMP180;65216;51.090;-115.352;2024-01-30T02:51:54;86951.00;;;22.80
76394;BMP180;65216;51.090;-115.352;2024-01-30T02:54:23;86969.00;;;22.80
76394;BMP180;65216;51.090;-115.352;2024-01-30T02:56:49;86969.40;;;22.80
76394;BMP180;65216;51.090;-115.352;2024-01-30T02:59:16;86963.00;;;22.80
76394;BMP180;65216;51.090;-115.352;2024-01-30T03:01:44;86957.60;;;22.80
76394;BMP180;65216;51.090;-115.352;2024-01-30T03:04:15;86951.80;;;22.80
76394;BMP180;65216;51.090;-115.352;2024-01-30T03:06:48;86949.60;;;22.80
76394;BMP180;65216;51.090;-115.352;2024-01-30T03:09:19;86943.00;;;22.80
76394;BMP180;65216;51.090;-115.352;2024-01-30T03:11:46;86929.40;;;22.80
76394;BMP180;65216;51.090;-115.352;2024-01-30T03:14:17;86942.80;;;22.80
76394;BMP180;65216;51.090;-115.352;2024-01-30T03:16:44;86938.20;;;22.72
76394;BMP180;65216;51.090;-115.352;2024-01-30T03:19:11;86917.00;;;22.70
76394;BMP180;65216;51.090;-115.352;2024-01-30T03:21:38;86920.60;;;22.70
76394;BMP180;65216;51.090;-115.352;2024-01-30T03:24:05;86924.60;;;22.70
76394;BMP180;65216;51.090;-115.352;2024-01-30T03:26:32;86906.20;;;22.70
76394;BMP180;65216;51.090;-115.352;2024-01-30T03:28:59;86909.80;;;22.70
76394;BMP180;65216;51.090;-115.352;2024-01-30T03:31:28;86919.00;;;22.70
76394;BMP180;65216;51.090;-115.352;2024-01-30T03:33:55;86928.20;;;22.70
76394;BMP180;65216;51.090;-115.352;2024-01-30T03:36:21;86934.80;;;22.70
76394;BMP180;65216;51.090;-115.352;2024-01-30T03:38:48;86933.40;;;22.70
76394;BMP180;65216;51.090;-115.352;2024-01-30T03:41:15;86929.60;;;22.70
76394;BMP180;65216;51.090;-115.352;2024-01-30T03:43:46;86923.60;;;22.70
76394;BMP180;65216;51.090;-115.352;2024-01-30T03:46:13;86921.40;;;22.70
76394;BMP180;65216;51.090;-115.352;2024-01-30T03:48:43;86908.60;;;22.70
76394;BMP180;65216;51.090;-115.352;2024-01-30T03:51:09;86916.00;;;22.70
76394;BMP180;65216;51.090;-115.352;2024-01-30T03:53:44;86915.20;;;22.70
76394;BMP180;65216;51.090;-115.352;2024-01-30T03:56:12;86908.40;;;22.70
76394;BMP180;65216;51.090;-115.352;2024-01-30T03:58:40;86922.20;;;22.70
76394;BMP180;65216;51.090;-115.352;2024-01-30T04:01:12;86920.60;;;22.64
76394;BMP180;65216;51.090;-115.352;2024-01-30T04:03:41;86905.40;;;22.62
76394;BMP180;65216;51.090;-115.352;2024-01-30T04:06:10;86905.40;;;22.60
76394;BMP180;65216;51.090;-115.352;2024-01-30T04:08:39;86912.40;;;22.60
76394;BMP180;65216;51.090;-115.352;2024-01-30T04:11:06;86928.60;;;22.62
76394;BMP180;65216;51.090;-115.352;2024-01-30T04:13:34;86919.60;;;22.60
76394;BMP180;65216;51.090;-115.352;2024-01-30T04:16:01;86918.80;;;22.60
76394;BMP180;65216;51.090;-115.352;2024-01-30T04:18:29;86921.40;;;22.60
76394;BMP180;65216;51.090;-115.352;2024-01-30T04:20:57;86916.20;;;22.60
76394;BMP180;65216;51.090;-115.352;2024-01-30T04:23:24;86914.60;;;22.60
76394;BMP180;65216;51.090;-115.352;2024-01-30T04:25:51;86919.80;;;22.60
76394;BMP180;65216;51.090;-115.352;2024-01-30T04:28:18;86923.80;;;22.60
76394;BMP180;65216;51.090;-115.352;2024-01-30T04:30:45;86918.60;;;22.60
76394;BMP180;65216;51.090;-115.352;2024-01-30T04:33:12;86921.80;;;22.60
76394;BMP180;65216;51.090;-115.352;2024-01-30T04:35:40;86916.80;;;22.54
76394;BMP180;65216;51.090;-115.352;2024-01-30T04:38:06;86905.60;;;22.52
76394;BMP180;65216;51.090;-115.352;2024-01-30T04:40:34;86901.40;;;22.50
76394;BMP180;65216;51.090;-115.352;2024-01-30T04:43:01;86925.60;;;22.50
76394;BMP180;65216;51.090;-115.352;2024-01-30T04:45:28;86912.40;;;22.50
76394;BMP180;65216;51.090;-115.352;2024-01-30T04:47:55;86912.60;;;22.50
76394;BMP180;65216;51.090;-115.352;2024-01-30T04:50:23;86914.60;;;22.50
76394;BMP180;65216;51.090;-115.352;2024-01-30T04:52:50;86905.40;;;22.50
76394;BMP180;65216;51.090;-115.352;2024-01-30T04:55:16;86904.20;;;22.40
76394;BMP180;65216;51.090;-115.352;2024-01-30T04:57:43;86895.80;;;22.40
76394;BMP180;65216;51.090;-115.352;2024-01-30T05:00:10;86905.00;;;22.40
76394;BMP180;65216;51.090;-115.352;2024-01-30T05:02:37;86904.60;;;22.40
76394;BMP180;65216;51.090;-115.352;2024-01-30T05:05:05;86902.80;;;22.40
76394;BMP180;65216;51.090;-115.352;2024-01-30T05:07:32;86889.80;;;22.38
76394;BMP180;65216;51.090;-115.352;2024-01-30T05:09:59;86903.80;;;22.34
76394;BMP180;65216;51.090;-115.352;2024-01-30T05:12:26;86888.80;;;22.30
76394;BMP180;65216;51.090;-115.352;2024-01-30T05:14:53;86877.40;;;22.30
76394;BMP180;65216;51.090;-115.352;2024-01-30T05:17:20;86882.20;;;22.30
76394;BMP180;65216;51.090;-115.352;2024-01-30T05:19:48;86886.40;;;22.30
76394;BMP180;65216;51.090;-115.352;2024-01-30T05:22:20;86876.20;;;22.30
76394;BMP180;65216;51.090;-115.352;2024-01-30T05:24:47;86883.80;;;22.30
76394;BMP180;65216;51.090;-115.352;2024-01-30T05:27:14;86875.80;;;22.30
76394;BMP180;65216;51.090;-115.352;2024-01-30T05:29:43;86860.80;;;22.30
76394;BMP180;65216;51.090;-115.352;2024-01-30T05:32:12;86858.80;;;22.30
76394;BMP180;65216;51.090;-115.352;2024-01-30T05:34:38;86859.40;;;22.30
76394;BMP180;65216;51.090;-115.352;2024-01-30T05:37:05;86863.80;;;22.30
76394;BMP180;65216;51.090;-115.352;2024-01-30T05:39:32;86845.80;;;22.30
76394;BMP180;65216;51.090;-115.352;2024-01-30T05:41:59;86857.40;;;22.30
76394;BMP180;65216;51.090;-115.352;2024-01-30T05:44:26;86844.80;;;22.30
76394;BMP180;65216;51.090;-115.352;2024-01-30T05:46:53;86843.00;;;22.30
76394;BMP180;65216;51.090;-115.352;2024-01-30T05:49:20;86842.60;;;22.38
76394;BMP180;65216;51.090;-115.352;2024-01-30T05:51:47;86850.20;;;22.38
76394;BMP180;65216;51.090;-115.352;2024-01-30T05:54:14;86839.60;;;22.38
76394;BMP180;65216;51.090;-115.352;2024-01-30T05:56:41;86844.80;;;22.40
76394;BMP180;65216;51.090;-115.352;2024-01-30T05:59:08;86818.40;;;22.32
76394;BMP180;65216;51.090;-115.352;2024-01-30T06:01:35;86832.60;;;22.30
76394;BMP180;65216;51.090;-115.352;2024-01-30T06:04:02;86823.40;;;22.30
76394;BMP180;65216;51.090;-115.352;2024-01-30T06:06:28;86818.80;;;22.30
76394;BMP180;65216;51.090;-115.352;2024-01-30T06:08:55;86817.00;;;22.30
76394;BMP180;65216;51.090;-115.352;2024-01-30T06:11:22;86818.60;;;22.30
76394;BMP180;65216;51.090;-115.352;2024-01-30T06:13:49;86804.00;;;22.30
76394;BMP180;65216;51.090;-115.352;2024-01-30T06:16:15;86798.00;;;22.30
76394;BMP180;65216;51.090;-115.352;2024-01-30T06:18:42;86800.40;;;22.30
76394;BMP180;65216;51.090;-115.352;2024-01-30T06:21:09;86792.00;;;22.30
76394;BMP180;65216;51.090;-115.352;2024-01-30T06:23:36;86788.80;;;22.30
76394;BMP180;65216;51.090;-115.352;2024-01-30T06:26:06;86808.20;;;22.34
76394;BMP180;65216;51.090;-115.352;2024-01-30T06:28:33;86768.20;;;22.30
76394;BMP180;65216;51.090;-115.352;2024-01-30T06:31:01;86779.20;;;22.30
76394;BMP180;65216;51.090;-115.352;2024-01-30T06:33:28;86779.60;;;22.34
76394;BMP180;65216;51.090;-115.352;2024-01-30T06:35:55;86768.00;;;22.38
76394;BMP180;65216;51.090;-115.352;2024-01-30T06:38:24;86761.60;;;22.30
76394;BMP180;65216;51.090;-115.352;2024-01-30T06:40:50;86772.20;;;22.30
76394;BMP180;65216;51.090;-115.352;2024-01-30T06:43:17;86776.80;;;22.30
76394;BMP180;65216;51.090;-115.352;2024-01-30T06:45:44;86775.00;;;22.30
76394;BMP180;65216;51.090;-115.352;2024-01-30T06:48:12;86754.80;;;22.30
76394;BMP180;65216;51.090;-115.352;2024-01-30T06:50:39;86774.80;;;22.30
76394;BMP180;65216;51.090;-115.352;2024-01-30T06:53:06;86753.00;;;22.30
76394;BMP180;65216;51.090;-115.352;2024-01-30T06:55:36;86748.60;;;22.30
76394;BMP180;65216;51.090;-115.352;2024-01-30T06:58:05;86762.00;;;22.30
76394;BMP180;65216;51.090;-115.352;2024-01-30T07:00:35;86753.20;;;22.30
76394;BMP180;65216;51.090;-115.352;2024-01-30T07:03:02;86759.00;;;22.30
76394;BMP180;65216;51.090;-115.352;2024-01-30T07:05:30;86752.20;;;22.28
76394;BMP180;65216;51.090;-115.352;2024-01-30T07:07:57;86741.80;;;22.20
76394;BMP180;65216;51.090;-115.352;2024-01-30T07:10:24;86754.80;;;22.20
76394;BMP180;65216;51.090;-115.352;2024-01-30T07:12:50;86730.20;;;22.20
76394;BMP180;65216;51.090;-115.352;2024-01-30T07:15:17;86733.20;;;22.20
76394;BMP180;65216;51.090;-115.352;2024-01-30T07:17:46;86718.80;;;22.12
76394;BMP180;65216;51.090;-115.352;2024-01-30T07:20:13;86726.20;;;22.10
76394;BMP180;65216;51.090;-115.352;2024-01-30T07:22:40;86715.00;;;22.10
76394;BMP180;65216;51.090;-115.352;2024-01-30T07:25:08;86725.00;;;22.10
76394;BMP180;65216;51.090;-115.352;2024-01-30T07:27:35;86703.60;;;22.10
76394;BMP180;65216;51.090;-115.352;2024-01-30T07:30:03;86716.60;;;22.10
76394;BMP180;65216;51.090;-115.352;2024-01-30T07:32:30;86710.60;;;22.00
76394;BMP180;65216;51.090;-115.352;2024-01-30T07:34:58;86697.60;;;22.00
76394;BMP180;65216;51.090;-115.352;2024-01-30T07:37:24;86680.40;;;22.00
76394;BMP180;65216;51.090;-115.352;2024-01-30T07:39:54;86706.20;;;22.00
76394;BMP180;65216;51.090;-115.352;2024-01-30T07:42:21;86707.40;;;22.00
76394;BMP180;65216;51.090;-115.352;2024-01-30T07:44:50;86693.00;;;22.00
76394;BMP180;65216;51.090;-115.352;2024-01-30T07:47:19;86698.60;;;21.96
76394;BMP180;65216;51.090;-115.352;2024-01-30T07:49:46;86684.40;;;21.90
76394;BMP180;65216;51.090;-115.352;2024-01-30T07:52:13;86686.40;;;21.90
76394;BMP180;65216;51.090;-115.352;2024-01-30T07:54:40;86657.60;;;21.90
76394;BMP180;65216;51.090;-115.352;2024-01-30T07:57:11;86678.20;;;21.90
76394;BMP180;65216;51.090;-115.352;2024-01-30T07:59:38;86674.60;;;21.90
76394;BMP180;65216;51.090;-115.352;2024-01-30T08:02:04;86677.20;;;21.90
76394;BMP180;65216;51.090;-115.352;2024-01-30T08:04:31;86656.40;;;21.90
76394;BMP180;65216;51.090;-115.352;2024-01-30T08:06:58;86648.20;;;21.90
76394;BMP180;65216;51.090;-115.352;2024-01-30T08:09:25;86652.80;;;21.90
76394;BMP180;65216;51.090;-115.352;2024-01-30T08:11:54;86655.20;;;21.90
76394;BMP180;65216;51.090;-115.352;2024-01-30T08:14:21;86649.60;;;21.90
76394;BMP180;65216;51.090;-115.352;2024-01-30T08:16:51;86639.40;;;21.90
76394;BMP180;65216;51.090;-115.352;2024-01-30T08:19:18;86622.20;;;21.90
76394;BMP180;65216;51.090;-115.352;2024-01-30T08:21:45;86619.40;;;21.90
76394;BMP180;65216;51.090;-115.352;2024-01-30T08:24:12;86605.60;;;21.90
76394;BMP180;65216;51.090;-115.352;2024-01-30T08:26:39;86619.40;;;21.82
76394;BMP180;65216;51.090;-115.352;2024-01-30T08:29:06;86621.80;;;21.80
76394;BMP180;65216;51.090;-115.352;2024-01-30T08:31:33;86626.80;;;21.80
76394;BMP180;65216;51.090;-115.352;2024-01-30T08:34:00;86570.20;;;21.80
76394;BMP180;65216;51.090;-115.352;2024-01-30T08:36:26;86573.60;;;21.80
76394;BMP180;65216;51.090;-115.352;2024-01-30T08:38:53;86575.80;;;21.80
76394;BMP180;65216;51.090;-115.352;2024-01-30T08:41:20;86580.40;;;21.80
76394;BMP180;65216;51.090;-115.352;2024-01-30T08:43:47;86577.20;;;21.80
76394;BMP180;65216;51.090;-115.352;2024-01-30T08:46:18;86571.00;;;21.78
76394;BMP180;65216;51.090;-115.352;2024-01-30T08:48:47;86560.80;;;21.74
76394;BMP180;65216;51.090;-115.352;2024-01-30T08:51:17;86559.60;;;21.78
76394;BMP180;65216;51.090;-115.352;2024-01-30T08:53:43;86543.00;;;21.78
76394;BMP180;65216;51.090;-115.352;2024-01-30T08:56:11;86548.80;;;21.74
76394;BMP180;65216;51.090;-115.352;2024-01-30T08:58:38;86542.40;;;21.72
76394;BMP180;65216;51.090;-115.352;2024-01-30T09:01:05;86536.20;;;21.72
76394;BMP180;65216;51.090;-115.352;2024-01-30T09:03:32;86526.40;;;21.80
76394;BMP180;65216;51.090;-115.352;2024-01-30T09:05:59;86534.80;;;21.80
76394;BMP180;65216;51.090;-115.352;2024-01-30T09:08:28;86524.20;;;21.80
76394;BMP180;65216;51.090;-115.352;2024-01-30T09:10:55;86521.00;;;21.80
76394;BMP180;65216;51.090;-115.352;2024-01-30T09:13:22;86513.40;;;21.80
76394;BMP180;65216;51.090;-115.352;2024-01-30T09:15:50;86502.20;;;21.80
76394;BMP180;65216;51.090;-115.352;2024-01-30T09:18:17;86516.60;;;21.80
76394;BMP180;65216;51.090;-115.352;2024-01-30T09:20:44;86516.60;;;21.80
76394;BMP180;65216;51.090;-115.352;2024-01-30T09:23:14;86492.80;;;21.80
76394;BMP180;65216;51.090;-115.352;2024-01-30T09:25:40;86495.00;;;21.80
76394;BMP180;65216;51.090;-115.352;2024-01-30T09:28:07;86503.20;;;21.80
76394;BMP180;65216;51.090;-115.352;2024-01-30T09:30:35;86506.80;;;21.72
76394;BMP180;65216;51.090;-115.352;2024-01-30T09:33:02;86509.20;;;21.72
76394;BMP180;65216;51.090;-115.352;2024-01-30T09:35:29;86491.00;;;21.80
76394;BMP180;65216;51.090;-115.352;2024-01-30T09:37:56;86480.00;;;21.80
76394;BMP180;65216;51.090;-115.352;2024-01-30T09:40:24;86508.40;;;21.80
76394;BMP180;65216;51.090;-115.352;2024-01-30T09:42:51;86493.40;;;21.80
76394;BMP180;65216;51.090;-115.352;2024-01-30T09:45:19;86492.80;;;21.80
76394;BMP180;65216;51.090;-115.352;2024-01-30T09:47:48;86466.40;;;21.80
76394;BMP180;65216;51.090;-115.352;2024-01-30T09:50:16;86464.00;;;21.80
76394;BMP180;65216;51.090;-115.352;2024-01-30T09:52:47;86458.80;;;21.80
76394;BMP180;65216;51.090;-115.352;2024-01-30T09:55:14;86465.80;;;21.80
76394;BMP180;65216;51.090;-115.352;2024-01-30T09:57:44;86478.40;;;21.80
76394;BMP180;65216;51.090;-115.352;2024-01-30T10:00:12;86488.00;;;21.80
76394;BMP180;65216;51.090;-115.352;2024-01-30T10:02:40;86460.80;;;21.80
76394;BMP180;65216;51.090;-115.352;2024-01-30T10:05:08;86450.00;;;21.80
76394;BMP180;65216;51.090;-115.352;2024-01-30T10:07:35;86436.80;;;21.80
76394;BMP180;65216;51.090;-115.352;2024-01-30T10:10:04;86445.40;;;21.80
76394;BMP180;65216;51.090;-115.352;2024-01-30T10:12:31;86432.80;;;21.80
76394;BMP180;65216;51.090;-115.352;2024-01-30T10:14:59;86460.80;;;21.80
76394;BMP180;65216;51.090;-115.352;2024-01-30T10:17:26;86416.00;;;21.80
76394;BMP180;65216;51.090;-115.352;2024-01-30T10:19:53;86412.80;;;21.80
76394;BMP180;65216;51.090;-115.352;2024-01-30T10:22:20;86428.60;;;21.80
76394;BMP180;65216;51.090;-115.352;2024-01-30T10:24:48;86400.40;;;21.80
76394;BMP180;65216;51.090;-115.352;2024-01-30T10:27:16;86414.40;;;21.80
76394;BMP180;65216;51.090;-115.352;2024-01-30T10:29:43;86407.60;;;21.80
76394;BMP180;65216;51.090;-115.352;2024-01-30T10:32:10;86388.40;;;21.80
76394;BMP180;65216;51.090;-115.352;2024-01-30T10:34:37;86372.80;;;21.80
76394;BMP180;65216;51.090;-115.352;2024-01-30T10:37:11;86376.20;;;21.80
76394;BMP180;65216;51.090;-115.352;2024-01-30T10:39:46;86379.00;;;21.80
76394;BMP180;65216;51.090;-115.352;2024-01-30T10:42:17;86372.00;;;21.80
76394;BMP180;65216;51.090;-115.352;2024-01-30T10:45:04;86376.60;;;21.80
76394;BMP180;65216;51.090;-115.352;2024-01-30T10:47:35;86370.20;;;21.80
76394;BMP180;65216;51.090;-115.352;2024-01-30T10:50:07;86393.00;;;21.80
76394;BMP180;65216;51.090;-115.352;2024-01-30T10:52:35;86394.60;;;21.80
76394;BMP180;65216;51.090;-115.352;2024-01-30T10:55:05;86371.20;;;21.76
76394;BMP180;65216;51.090;-115.352;2024-01-30T10:57:38;86359.80;;;21.80
76394;BMP180;65216;51.090;-115.352;2024-01-30T11:00:12;86374.60;;;21.80
76394;BMP180;65216;51.090;-115.352;2024-01-30T11:02:44;86340.60;;;21.80
76394;BMP180;65216;51.090;-115.352;2024-01-30T11:05:13;86336.00;;;21.80
76394;BMP180;65216;51.090;-115.352;2024-01-30T11:07:42;86318.20;;;21.80
76394;BMP180;65216;51.090;-115.352;2024-01-30T11:10:09;86348.80;;;21.80
76394;BMP180;65216;51.090;-115.352;2024-01-30T11:12:41;86318.60;;;21.80
76394;BMP180;65216;51.090;-115.352;2024-01-30T11:15:11;86322.20;;;21.80
76394;BMP180;65216;51.090;-115.352;2024-01-30T11:17:52;86304.80;;;21.80
76394;BMP180;65216;51.090;-115.352;2024-01-30T11:20:25;86326.60;;;21.80
76394;BMP180;65216;51.090;-115.352;2024-01-30T11:22:54;86316.80;;;21.80
76394;BMP180;65216;51.090;-115.352;2024-01-30T11:25:24;86328.60;;;21.80
76394;BMP180;65216;51.090;-115.352;2024-01-30T11:27:54;86321.20;;;21.80
76394;BMP180;65216;51.090;-115.352;2024-01-30T11:30:28;86325.40;;;21.80
76394;BMP180;65216;51.090;-115.352;2024-01-30T11:33:07;86318.20;;;21.80
76394;BMP180;65216;51.090;-115.352;2024-01-30T11:35:37;86313.40;;;21.80
76394;BMP180;65216;51.090;-115.352;2024-01-30T11:38:13;86303.00;;;21.88
76394;BMP180;65216;51.090;-115.352;2024-01-30T11:40:41;86290.00;;;21.88
76394;BMP180;65216;51.090;-115.352;2024-01-30T11:43:10;86296.60;;;21.86
76394;BMP180;65216;51.090;-115.352;2024-01-30T11:45:40;86313.60;;;21.84
76394;BMP180;65216;51.090;-115.352;2024-01-30T11:48:07;86310.20;;;21.90
76394;BMP180;65216;51.090;-115.352;2024-01-30T11:50:39;86306.40;;;21.90
76394;BMP180;65216;51.090;-115.352;2024-01-30T11:53:07;86306.00;;;21.90
76394;BMP180;65216;51.090;-115.352;2024-01-30T11:55:34;86291.60;;;21.90
76394;BMP180;65216;51.090;-115.352;2024-01-30T11:58:04;86275.80;;;21.90
76394;BMP180;65216;51.090;-115.352;2024-01-30T12:00:34;86267.40;;;21.90
76394;BMP180;65216;51.090;-115.352;2024-01-30T12:03:03;86284.60;;;21.90
76394;BMP180;65216;51.090;-115.352;2024-01-30T12:05:32;86266.80;;;21.90
76394;BMP180;65216;51.090;-115.352;2024-01-30T12:07:59;86265.80;;;21.90
76394;BMP180;65216;51.090;-115.352;2024-01-30T12:10:26;86264.60;;;21.90
76394;BMP180;65216;51.090;-115.352;2024-01-30T12:12:54;86274.40;;;21.82
76394;BMP180;65216;51.090;-115.352;2024-01-30T12:15:23;86270.40;;;21.80
76394;BMP180;65216;51.090;-115.352;2024-01-30T12:17:50;86276.00;;;21.80
76394;BMP180;65216;51.090;-115.352;2024-01-30T12:20:20;86254.80;;;21.80
76394;BMP180;65216;51.090;-115.352;2024-01-30T12:22:49;86274.20;;;21.80
76394;BMP180;65216;51.090;-115.352;2024-01-30T12:25:18;86242.40;;;21.80
76394;BMP180;65216;51.090;-115.352;2024-01-30T12:27:48;86285.20;;;21.80
76394;BMP180;65216;51.090;-115.352;2024-01-30T12:30:20;86262.40;;;21.80
76394;BMP180;65216;51.090;-115.352;2024-01-30T12:32:50;86303.00;;;21.78
76394;BMP180;65216;51.090;-115.352;2024-01-30T12:35:19;86242.00;;;21.72
76394;BMP180;65216;51.090;-115.352;2024-01-30T12:37:48;86251.20;;;21.72
76394;BMP180;65216;51.090;-115.352;2024-01-30T12:40:17;86218.40;;;21.80
76394;BMP180;65216;51.090;-115.352;2024-01-30T12:42:47;86238.60;;;21.78
76394;BMP180;65216;51.090;-115.352;2024-01-30T12:45:17;86230.20;;;21.70
76394;BMP180;65216;51.090;-115.352;2024-01-30T12:47:48;86231.80;;;21.70
76394;BMP180;65216;51.090;-115.352;2024-01-30T12:50:15;86247.40;;;21.70
76394;BMP180;65216;51.090;-115.352;2024-01-30T12:52:43;86194.20;;;21.70
76394;BMP180;65216;51.090;-115.352;2024-01-30T12:55:10;86211.40;;;21.70
76394;BMP180;65216;51.090;-115.352;2024-01-30T12:57:41;86260.40;;;21.70
76394;BMP180;65216;51.090;-115.352;2024-01-30T13:00:10;86221.60;;;21.70
76394;BMP180;65216;51.090;-115.352;2024-01-30T13:02:42;86265.20;;;21.70
76394;BMP180;65216;51.090;-115.352;2024-01-30T13:05:13;86240.40;;;21.70
76394;BMP180;65216;51.090;-115.352;2024-01-30T13:07:40;86245.60;;;21.70
76394;BMP180;65216;51.090;-115.352;2024-01-30T13:10:07;86280.20;;;21.70
76394;BMP180;65216;51.090;-115.352;2024-01-30T13:12:34;86267.00;;;21.70
76394;BMP180;65216;51.090;-115.352;2024-01-30T13:15:02;86291.80;;;21.72
76394;BMP180;65216;51.090;-115.352;2024-01-30T13:17:31;86284.80;;;21.70
76394;BMP180;65216;51.090;-115.352;2024-01-30T13:19:59;86284.60;;;21.78
76394;BMP180;65216;51.090;-115.352;2024-01-30T13:22:26;86322.60;;;21.80
76394;BMP180;65216;51.090;-115.352;2024-01-30T13:24:52;86353.00;;;21.80
76394;BMP180;65216;51.090;-115.352;2024-01-30T13:27:20;86343.80;;;21.80
76394;BMP180;65216;51.090;-115.352;2024-01-30T13:29:47;86359.20;;;21.80
76394;BMP180;65216;51.090;-115.352;2024-01-30T13:32:14;86295.80;;;21.80
76394;BMP180;65216;51.090;-115.352;2024-01-30T13:34:41;86309.60;;;21.80
76394;BMP180;65216;51.090;-115.352;2024-01-30T13:37:08;86328.40;;;21.80